sensor_id;sensor_type;location;lat;lon;timestamp;P1;durP1;ratioP1;P2;durP2;ratioP2
78489;SDS011;67776;52.012;4.736;2023-05-10T00:02:22;60.33;;;20.23;;
78489;SDS011;67776;52.012;4.736;2023-05-10T00:04:47;63.05;;;20.13;;
78489;SDS011;67776;52.012;4.736;2023-05-10T00:07:13;58.17;;;20.13;;
78489;SDS011;67776;52.012;4.736;2023-05-10T00:09:38;73.63;;;21.60;;
78489;SDS011;67776;52.012;4.736;2023-05-10T00:12:04;70.67;;;22.00;;
78489;SDS011;67776;52.012;4.736;2023-05-10T00:14:29;65.88;;;20.08;;
78489;SDS011;67776;52.012;4.736;2023-05-10T00:16:55;76.93;;;21.27;;
78489;SDS011;67776;52.012;4.736;2023-05-10T00:19:20;79.07;;;21.47;;
78489;SDS011;67776;52.012;4.736;2023-05-10T00:21:45;86.50;;;21.27;;
78489;SDS011;67776;52.012;4.736;2023-05-10T00:24:11;94.70;;;22.73;;
78489;SDS011;67776;52.012;4.736;2023-05-10T00:26:36;96.43;;;22.83;;
78489;SDS011;67776;52.012;4.736;2023-05-10T00:29:01;85.40;;;22.23;;
78489;SDS011;67776;52.012;4.736;2023-05-10T00:31:27;86.23;;;21.50;;
78489;SDS011;67776;52.012;4.736;2023-05-10T00:33:52;84.23;;;22.27;;
78489;SDS011;67776;52.012;4.736;2023-05-10T00:36:17;88.03;;;22.53;;
78489;SDS011;67776;52.012;4.736;2023-05-10T00:38:43;92.03;;;23.73;;
78489;SDS011;67776;52.012;4.736;2023-05-10T00:41:08;86.03;;;22.53;;
78489;SDS011;67776;52.012;4.736;2023-05-10T00:43:33;93.80;;;23.37;;
78489;SDS011;67776;52.012;4.736;2023-05-10T00:45:59;91.17;;;23.63;;
78489;SDS011;67776;52.012;4.736;2023-05-10T00:48:24;103.77;;;23.67;;
78489;SDS011;67776;52.012;4.736;2023-05-10T00:50:50;106.90;;;25.13;;
78489;SDS011;67776;52.012;4.736;2023-05-10T00:53:15;103.75;;;25.88;;
78489;SDS011;67776;52.012;4.736;2023-05-10T00:55:41;106.57;;;25.80;;
78489;SDS011;67776;52.012;4.736;2023-05-10T00:58:06;106.40;;;25.88;;
78489;SDS011;67776;52.012;4.736;2023-05-10T01:00:32;104.10;;;26.33;;
78489;SDS011;67776;52.012;4.736;2023-05-10T01:02:58;99.47;;;26.38;;
78489;SDS011;67776;52.012;4.736;2023-05-10T01:05:24;98.07;;;26.25;;
78489;SDS011;67776;52.012;4.736;2023-05-10T01:07:49;101.20;;;26.33;;
78489;SDS011;67776;52.012;4.736;2023-05-10T01:10:15;104.90;;;26.50;;
78489;SDS011;67776;52.012;4.736;2023-05-10T01:12:42;91.77;;;26.03;;
78489;SDS011;67776;52.012;4.736;2023-05-10T01:15:09;105.35;;;27.63;;
78489;SDS011;67776;52.012;4.736;2023-05-10T01:17:36;113.45;;;28.13;;
78489;SDS011;67776;52.012;4.736;2023-05-10T01:20:04;120.13;;;30.00;;
78489;SDS011;67776;52.012;4.736;2023-05-10T01:28:33;120.35;;;31.15;;
78489;SDS011;67776;52.012;4.736;2023-05-10T01:33:54;124.13;;;30.73;;
78489;SDS011;67776;52.012;4.736;2023-05-10T01:36:30;124.70;;;33.60;;
78489;SDS011;67776;52.012;4.736;2023-05-10T01:46:57;106.88;;;28.80;;
78489;SDS011;67776;52.012;4.736;2023-05-10T01:49:31;115.77;;;29.30;;
78489;SDS011;67776;52.012;4.736;2023-05-10T01:52:00;115.95;;;29.00;;
78489;SDS011;67776;52.012;4.736;2023-05-10T01:54:32;106.03;;;28.63;;
78489;SDS011;67776;52.012;4.736;2023-05-10T01:57:00;99.45;;;27.08;;
78489;SDS011;67776;52.012;4.736;2023-05-10T01:59:29;108.82;;;30.20;;
78489;SDS011;67776;52.012;4.736;2023-05-10T02:02:01;98.37;;;26.37;;
78489;SDS011;67776;52.012;4.736;2023-05-10T02:04:27;102.82;;;29.17;;
78489;SDS011;67776;52.012;4.736;2023-05-10T02:06:53;114.18;;;30.10;;
78489;SDS011;67776;52.012;4.736;2023-05-10T02:09:20;95.75;;;28.33;;
78489;SDS011;67776;52.012;4.736;2023-05-10T02:11:47;90.57;;;28.58;;
78489;SDS011;67776;52.012;4.736;2023-05-10T02:14:13;84.57;;;28.10;;
78489;SDS011;67776;52.012;4.736;2023-05-10T02:16:40;95.63;;;26.90;;
78489;SDS011;67776;52.012;4.736;2023-05-10T02:19:07;85.22;;;25.35;;
78489;SDS011;67776;52.012;4.736;2023-05-10T02:21:35;86.60;;;27.60;;
78489;SDS011;67776;52.012;4.736;2023-05-10T02:24:02;87.60;;;28.38;;
78489;SDS011;67776;52.012;4.736;2023-05-10T02:26:29;94.10;;;27.23;;
78489;SDS011;67776;52.012;4.736;2023-05-10T02:28:56;93.72;;;28.27;;
78489;SDS011;67776;52.012;4.736;2023-05-10T02:31:24;84.10;;;27.38;;
78489;SDS011;67776;52.012;4.736;2023-05-10T02:33:50;93.10;;;27.25;;
78489;SDS011;67776;52.012;4.736;2023-05-10T02:36:16;91.03;;;28.63;;
78489;SDS011;67776;52.012;4.736;2023-05-10T02:38:42;100.83;;;27.13;;
78489;SDS011;67776;52.012;4.736;2023-05-10T02:41:09;89.68;;;26.45;;
78489;SDS011;67776;52.012;4.736;2023-05-10T02:43:36;96.72;;;29.08;;
78489;SDS011;67776;52.012;4.736;2023-05-10T02:46:03;88.50;;;28.05;;
78489;SDS011;67776;52.012;4.736;2023-05-10T02:48:28;91.00;;;27.30;;
78489;SDS011;67776;52.012;4.736;2023-05-10T02:50:55;83.85;;;27.67;;
78489;SDS011;67776;52.012;4.736;2023-05-10T02:53:29;87.60;;;29.42;;
78489;SDS011;67776;52.012;4.736;2023-05-10T02:55:57;80.05;;;27.17;;
78489;SDS011;67776;52.012;4.736;2023-05-10T02:58:25;80.43;;;26.90;;
78489;SDS011;67776;52.012;4.736;2023-05-10T03:00:51;73.18;;;26.77;;
78489;SDS011;67776;52.012;4.736;2023-05-10T03:03:17;102.50;;;28.80;;
78489;SDS011;67776;52.012;4.736;2023-05-10T03:05:42;98.43;;;30.10;;
78489;SDS011;67776;52.012;4.736;2023-05-10T03:08:08;90.77;;;29.00;;
78489;SDS011;67776;52.012;4.736;2023-05-10T03:10:33;93.95;;;29.52;;
78489;SDS011;67776;52.012;4.736;2023-05-10T03:13:16;97.70;;;30.20;;
78489;SDS011;67776;52.012;4.736;2023-05-10T03:16:04;94.15;;;29.55;;
78489;SDS011;67776;52.012;4.736;2023-05-10T03:18:42;82.93;;;29.30;;
78489;SDS011;67776;52.012;4.736;2023-05-10T03:21:10;79.10;;;29.25;;
78489;SDS011;67776;52.012;4.736;2023-05-10T03:23:50;82.15;;;30.48;;
78489;SDS011;67776;52.012;4.736;2023-05-10T03:26:37;84.97;;;29.60;;
78489;SDS011;67776;52.012;4.736;2023-05-10T03:29:04;84.03;;;30.60;;
78489;SDS011;67776;52.012;4.736;2023-05-10T03:31:30;88.55;;;31.05;;
78489;SDS011;67776;52.012;4.736;2023-05-10T03:33:55;88.03;;;31.07;;
78489;SDS011;67776;52.012;4.736;2023-05-10T03:36:21;95.10;;;34.50;;
78489;SDS011;67776;52.012;4.736;2023-05-10T03:38:46;87.10;;;30.93;;
78489;SDS011;67776;52.012;4.736;2023-05-10T03:41:11;82.28;;;29.08;;
78489;SDS011;67776;52.012;4.736;2023-05-10T03:43:37;68.43;;;26.70;;
78489;SDS011;67776;52.012;4.736;2023-05-10T03:46:03;69.22;;;23.63;;
78489;SDS011;67776;52.012;4.736;2023-05-10T03:48:29;73.38;;;24.70;;
78489;SDS011;67776;52.012;4.736;2023-05-10T03:50:55;78.53;;;25.87;;
78489;SDS011;67776;52.012;4.736;2023-05-10T03:53:20;87.57;;;28.53;;
78489;SDS011;67776;52.012;4.736;2023-05-10T03:55:46;77.20;;;26.40;;
78489;SDS011;67776;52.012;4.736;2023-05-10T03:58:11;78.70;;;26.20;;
78489;SDS011;67776;52.012;4.736;2023-05-10T04:00:37;87.20;;;27.60;;
78489;SDS011;67776;52.012;4.736;2023-05-10T04:03:02;81.17;;;26.57;;
78489;SDS011;67776;52.012;4.736;2023-05-10T04:05:28;96.22;;;30.40;;
78489;SDS011;67776;52.012;4.736;2023-05-10T04:07:53;95.10;;;28.73;;
78489;SDS011;67776;52.012;4.736;2023-05-10T04:10:19;100.68;;;31.40;;
78489;SDS011;67776;52.012;4.736;2023-05-10T04:12:45;76.73;;;27.47;;
78489;SDS011;67776;52.012;4.736;2023-05-10T04:15:10;85.03;;;29.63;;
78489;SDS011;67776;52.012;4.736;2023-05-10T04:17:36;87.93;;;28.88;;
78489;SDS011;67776;52.012;4.736;2023-05-10T04:20:02;94.38;;;29.58;;
78489;SDS011;67776;52.012;4.736;2023-05-10T04:22:28;83.10;;;28.77;;
78489;SDS011;67776;52.012;4.736;2023-05-10T04:24:54;83.47;;;30.05;;
78489;SDS011;67776;52.012;4.736;2023-05-10T04:27:19;78.17;;;27.87;;
78489;SDS011;67776;52.012;4.736;2023-05-10T04:29:44;76.20;;;28.00;;
78489;SDS011;67776;52.012;4.736;2023-05-10T04:32:10;84.10;;;29.23;;
78489;SDS011;67776;52.012;4.736;2023-05-10T04:34:36;83.07;;;30.00;;
78489;SDS011;67776;52.012;4.736;2023-05-10T04:37:01;77.25;;;29.92;;
78489;SDS011;67776;52.012;4.736;2023-05-10T04:39:27;81.40;;;30.63;;
78489;SDS011;67776;52.012;4.736;2023-05-10T04:41:52;78.63;;;31.00;;
78489;SDS011;67776;52.012;4.736;2023-05-10T04:44:17;88.20;;;32.35;;
78489;SDS011;67776;52.012;4.736;2023-05-10T04:46:43;90.37;;;34.43;;
78489;SDS011;67776;52.012;4.736;2023-05-10T04:49:08;85.93;;;33.63;;
78489;SDS011;67776;52.012;4.736;2023-05-10T04:51:33;86.90;;;33.57;;
78489;SDS011;67776;52.012;4.736;2023-05-10T04:53:59;83.30;;;33.33;;
78489;SDS011;67776;52.012;4.736;2023-05-10T04:56:24;87.93;;;34.83;;
78489;SDS011;67776;52.012;4.736;2023-05-10T04:58:49;80.00;;;33.47;;
78489;SDS011;67776;52.012;4.736;2023-05-10T05:01:15;76.07;;;30.83;;
78489;SDS011;67776;52.012;4.736;2023-05-10T05:03:40;73.47;;;30.47;;
78489;SDS011;67776;52.012;4.736;2023-05-10T05:06:06;64.00;;;27.13;;
78489;SDS011;67776;52.012;4.736;2023-05-10T05:08:31;56.90;;;24.13;;
78489;SDS011;67776;52.012;4.736;2023-05-10T05:10:56;54.13;;;24.03;;
78489;SDS011;67776;52.012;4.736;2023-05-10T05:13:22;63.90;;;26.53;;
78489;SDS011;67776;52.012;4.736;2023-05-10T05:15:47;54.30;;;23.13;;
78489;SDS011;67776;52.012;4.736;2023-05-10T05:18:12;54.67;;;23.43;;
78489;SDS011;67776;52.012;4.736;2023-05-10T05:20:38;51.83;;;23.77;;
78489;SDS011;67776;52.012;4.736;2023-05-10T05:23:03;55.17;;;23.83;;
78489;SDS011;67776;52.012;4.736;2023-05-10T05:25:28;52.58;;;23.77;;
78489;SDS011;67776;52.012;4.736;2023-05-10T05:27:54;51.43;;;22.60;;
78489;SDS011;67776;52.012;4.736;2023-05-10T05:30:19;44.90;;;18.70;;
78489;SDS011;67776;52.012;4.736;2023-05-10T05:32:45;46.47;;;19.40;;
78489;SDS011;67776;52.012;4.736;2023-05-10T05:35:11;41.40;;;18.55;;
78489;SDS011;67776;52.012;4.736;2023-05-10T05:37:37;44.87;;;17.43;;
78489;SDS011;67776;52.012;4.736;2023-05-10T05:40:02;38.30;;;15.40;;
78489;SDS011;67776;52.012;4.736;2023-05-10T05:42:28;39.42;;;15.75;;
78489;SDS011;67776;52.012;4.736;2023-05-10T05:44:53;42.07;;;16.40;;
78489;SDS011;67776;52.012;4.736;2023-05-10T05:47:19;43.90;;;16.90;;
78489;SDS011;67776;52.012;4.736;2023-05-10T05:49:44;39.67;;;16.33;;
78489;SDS011;67776;52.012;4.736;2023-05-10T05:52:12;42.22;;;16.05;;
78489;SDS011;67776;52.012;4.736;2023-05-10T05:54:38;45.00;;;15.73;;
78489;SDS011;67776;52.012;4.736;2023-05-10T05:57:04;39.40;;;16.27;;
78489;SDS011;67776;52.012;4.736;2023-05-10T05:59:29;35.57;;;15.03;;
78489;SDS011;67776;52.012;4.736;2023-05-10T06:01:54;35.00;;;14.50;;
78489;SDS011;67776;52.012;4.736;2023-05-10T06:04:20;38.23;;;14.43;;
78489;SDS011;67776;52.012;4.736;2023-05-10T06:06:45;36.13;;;13.87;;
78489;SDS011;67776;52.012;4.736;2023-05-10T06:09:11;38.60;;;14.53;;
78489;SDS011;67776;52.012;4.736;2023-05-10T06:11:36;38.05;;;15.25;;
78489;SDS011;67776;52.012;4.736;2023-05-10T06:14:02;38.63;;;14.80;;
78489;SDS011;67776;52.012;4.736;2023-05-10T06:16:29;36.00;;;14.02;;
78489;SDS011;67776;52.012;4.736;2023-05-10T06:18:55;37.50;;;14.37;;
78489;SDS011;67776;52.012;4.736;2023-05-10T06:21:20;35.38;;;13.23;;
78489;SDS011;67776;52.012;4.736;2023-05-10T06:23:45;29.53;;;12.70;;
78489;SDS011;67776;52.012;4.736;2023-05-10T06:26:11;32.73;;;13.37;;
78489;SDS011;67776;52.012;4.736;2023-05-10T06:28:37;23.50;;;11.13;;
78489;SDS011;67776;52.012;4.736;2023-05-10T06:31:05;26.20;;;11.50;;
78489;SDS011;67776;52.012;4.736;2023-05-10T06:33:31;25.00;;;10.68;;
78489;SDS011;67776;52.012;4.736;2023-05-10T06:35:57;21.10;;;9.87;;
78489;SDS011;67776;52.012;4.736;2023-05-10T06:38:22;20.38;;;8.80;;
78489;SDS011;67776;52.012;4.736;2023-05-10T06:40:48;18.33;;;8.67;;
78489;SDS011;67776;52.012;4.736;2023-05-10T06:43:13;19.23;;;9.10;;
78489;SDS011;67776;52.012;4.736;2023-05-10T06:45:39;18.58;;;7.93;;
78489;SDS011;67776;52.012;4.736;2023-05-10T06:48:04;17.13;;;8.17;;
78489;SDS011;67776;52.012;4.736;2023-05-10T06:50:29;16.37;;;7.70;;
78489;SDS011;67776;52.012;4.736;2023-05-10T06:52:55;16.30;;;7.53;;
78489;SDS011;67776;52.012;4.736;2023-05-10T06:55:20;16.45;;;7.40;;
78489;SDS011;67776;52.012;4.736;2023-05-10T06:57:46;15.53;;;6.77;;
78489;SDS011;67776;52.012;4.736;2023-05-10T07:00:12;15.38;;;6.50;;
78489;SDS011;67776;52.012;4.736;2023-05-10T07:02:38;12.10;;;6.35;;
78489;SDS011;67776;52.012;4.736;2023-05-10T07:05:04;13.03;;;6.57;;
78489;SDS011;67776;52.012;4.736;2023-05-10T07:07:29;14.50;;;7.17;;
78489;SDS011;67776;52.012;4.736;2023-05-10T07:09:55;12.30;;;6.55;;
78489;SDS011;67776;52.012;4.736;2023-05-10T07:12:22;11.37;;;5.70;;
78489;SDS011;67776;52.012;4.736;2023-05-10T07:14:47;11.40;;;5.70;;
78489;SDS011;67776;52.012;4.736;2023-05-10T07:17:13;12.27;;;6.10;;
78489;SDS011;67776;52.012;4.736;2023-05-10T07:19:38;12.27;;;5.97;;
78489;SDS011;67776;52.012;4.736;2023-05-10T07:22:03;13.03;;;6.40;;
78489;SDS011;67776;52.012;4.736;2023-05-10T07:24:29;11.50;;;6.07;;
78489;SDS011;67776;52.012;4.736;2023-05-10T07:26:57;11.07;;;5.85;;
78489;SDS011;67776;52.012;4.736;2023-05-10T07:29:22;10.13;;;4.90;;
78489;SDS011;67776;52.012;4.736;2023-05-10T07:31:47;10.73;;;5.17;;
78489;SDS011;67776;52.012;4.736;2023-05-10T07:34:13;11.07;;;5.93;;
78489;SDS011;67776;52.012;4.736;2023-05-10T07:36:38;12.93;;;5.90;;
78489;SDS011;67776;52.012;4.736;2023-05-10T07:39:03;12.02;;;5.50;;
78489;SDS011;67776;52.012;4.736;2023-05-10T07:41:29;10.53;;;5.50;;
78489;SDS011;67776;52.012;4.736;2023-05-10T07:43:55;10.67;;;5.13;;
78489;SDS011;67776;52.012;4.736;2023-05-10T07:46:20;11.40;;;5.20;;
78489;SDS011;67776;52.012;4.736;2023-05-10T07:48:45;11.43;;;5.00;;
78489;SDS011;67776;52.012;4.736;2023-05-10T07:51:11;10.53;;;5.03;;
78489;SDS011;67776;52.012;4.736;2023-05-10T07:53:37;11.02;;;5.15;;
78489;SDS011;67776;52.012;4.736;2023-05-10T07:56:20;10.00;;;4.93;;
78489;SDS011;67776;52.012;4.736;2023-05-10T07:58:51;10.65;;;4.88;;
78489;SDS011;67776;52.012;4.736;2023-05-10T08:01:17;10.07;;;4.90;;
78489;SDS011;67776;52.012;4.736;2023-05-10T08:03:42;10.10;;;4.70;;
78489;SDS011;67776;52.012;4.736;2023-05-10T08:06:08;9.33;;;4.50;;
78489;SDS011;67776;52.012;4.736;2023-05-10T08:08:33;11.68;;;4.53;;
78489;SDS011;67776;52.012;4.736;2023-05-10T08:10:59;12.20;;;4.70;;
78489;SDS011;67776;52.012;4.736;2023-05-10T08:13:24;9.87;;;4.30;;
78489;SDS011;67776;52.012;4.736;2023-05-10T08:15:49;11.73;;;4.20;;
78489;SDS011;67776;52.012;4.736;2023-05-10T08:18:17;11.63;;;4.63;;
78489;SDS011;67776;52.012;4.736;2023-05-10T08:20:43;13.17;;;5.17;;
78489;SDS011;67776;52.012;4.736;2023-05-10T08:23:08;11.10;;;5.00;;
78489;SDS011;67776;52.012;4.736;2023-05-10T08:25:34;12.73;;;5.07;;
78489;SDS011;67776;52.012;4.736;2023-05-10T08:27:59;10.73;;;5.30;;
78489;SDS011;67776;52.012;4.736;2023-05-10T08:30:24;12.10;;;5.50;;
78489;SDS011;67776;52.012;4.736;2023-05-10T08:32:50;11.17;;;5.63;;
78489;SDS011;67776;52.012;4.736;2023-05-10T08:35:15;11.67;;;5.73;;
78489;SDS011;67776;52.012;4.736;2023-05-10T08:37:41;14.30;;;6.03;;
78489;SDS011;67776;52.012;4.736;2023-05-10T08:40:06;16.08;;;6.82;;
78489;SDS011;67776;52.012;4.736;2023-05-10T08:42:34;15.23;;;6.75;;
78489;SDS011;67776;52.012;4.736;2023-05-10T08:45:02;12.83;;;5.63;;
78489;SDS011;67776;52.012;4.736;2023-05-10T08:47:29;10.70;;;5.60;;
78489;SDS011;67776;52.012;4.736;2023-05-10T08:49:55;10.95;;;5.05;;
78489;SDS011;67776;52.012;4.736;2023-05-10T08:52:21;10.83;;;4.83;;
78489;SDS011;67776;52.012;4.736;2023-05-10T08:54:49;10.88;;;4.65;;
78489;SDS011;67776;52.012;4.736;2023-05-10T08:57:15;10.95;;;5.30;;
78489;SDS011;67776;52.012;4.736;2023-05-10T08:59:40;11.90;;;5.17;;
78489;SDS011;67776;52.012;4.736;2023-05-10T09:02:06;10.13;;;4.50;;
78489;SDS011;67776;52.012;4.736;2023-05-10T09:04:35;9.43;;;4.65;;
78489;SDS011;67776;52.012;4.736;2023-05-10T09:07:00;16.13;;;5.57;;
78489;SDS011;67776;52.012;4.736;2023-05-10T09:09:26;13.10;;;5.70;;
78489;SDS011;67776;52.012;4.736;2023-05-10T09:11:52;11.98;;;5.63;;
78489;SDS011;67776;52.012;4.736;2023-05-10T09:14:18;12.80;;;5.40;;
78489;SDS011;67776;52.012;4.736;2023-05-10T09:16:45;11.15;;;5.25;;
78489;SDS011;67776;52.012;4.736;2023-05-10T09:19:10;14.47;;;5.53;;
78489;SDS011;67776;52.012;4.736;2023-05-10T09:21:36;13.30;;;5.73;;
78489;SDS011;67776;52.012;4.736;2023-05-10T09:24:05;12.18;;;5.30;;
78489;SDS011;67776;52.012;4.736;2023-05-10T09:26:32;12.60;;;5.90;;
78489;SDS011;67776;52.012;4.736;2023-05-10T09:28:58;13.18;;;5.35;;
78489;SDS011;67776;52.012;4.736;2023-05-10T09:31:24;12.98;;;5.60;;
78489;SDS011;67776;52.012;4.736;2023-05-10T09:34:09;13.87;;;5.87;;
78489;SDS011;67776;52.012;4.736;2023-05-10T09:36:35;12.98;;;6.13;;
78489;SDS011;67776;52.012;4.736;2023-05-10T09:39:00;14.93;;;5.97;;
78489;SDS011;67776;52.012;4.736;2023-05-10T09:41:25;12.13;;;5.80;;
78489;SDS011;67776;52.012;4.736;2023-05-10T09:43:55;12.03;;;5.33;;
78489;SDS011;67776;52.012;4.736;2023-05-10T09:46:22;10.98;;;5.35;;
78489;SDS011;67776;52.012;4.736;2023-05-10T09:48:50;11.23;;;5.13;;
78489;SDS011;67776;52.012;4.736;2023-05-10T09:51:22;11.07;;;4.73;;
78489;SDS011;67776;52.012;4.736;2023-05-10T09:53:49;9.93;;;4.70;;
78489;SDS011;67776;52.012;4.736;2023-05-10T09:56:37;11.30;;;5.30;;
78489;SDS011;67776;52.012;4.736;2023-05-10T09:59:04;12.63;;;5.50;;
78489;SDS011;67776;52.012;4.736;2023-05-10T10:01:30;10.93;;;4.90;;
78489;SDS011;67776;52.012;4.736;2023-05-10T10:03:56;10.83;;;4.90;;
78489;SDS011;67776;52.012;4.736;2023-05-10T10:06:23;9.35;;;4.35;;
78489;SDS011;67776;52.012;4.736;2023-05-10T10:08:49;10.02;;;4.90;;
78489;SDS011;67776;52.012;4.736;2023-05-10T10:11:15;13.15;;;5.53;;
78489;SDS011;67776;52.012;4.736;2023-05-10T10:13:41;8.70;;;4.10;;
78489;SDS011;67776;52.012;4.736;2023-05-10T10:16:06;10.57;;;4.85;;
78489;SDS011;67776;52.012;4.736;2023-05-10T10:18:33;10.30;;;4.83;;
78489;SDS011;67776;52.012;4.736;2023-05-10T10:21:04;10.88;;;4.85;;
78489;SDS011;67776;52.012;4.736;2023-05-10T10:23:34;10.25;;;4.70;;
78489;SDS011;67776;52.012;4.736;2023-05-10T10:25:59;10.93;;;4.60;;
78489;SDS011;67776;52.012;4.736;2023-05-10T10:28:31;14.32;;;8.05;;
78489;SDS011;67776;52.012;4.736;2023-05-10T10:31:15;17.17;;;10.20;;
78489;SDS011;67776;52.012;4.736;2023-05-10T10:36:42;17.15;;;10.60;;
78489;SDS011;67776;52.012;4.736;2023-05-10T10:39:10;20.25;;;11.10;;
78489;SDS011;67776;52.012;4.736;2023-05-10T10:41:38;17.67;;;10.95;;
78489;SDS011;67776;52.012;4.736;2023-05-10T10:44:32;16.10;;;10.20;;
78489;SDS011;67776;52.012;4.736;2023-05-10T10:49:37;16.20;;;9.80;;
78489;SDS011;67776;52.012;4.736;2023-05-10T10:52:40;16.75;;;9.60;;
78489;SDS011;67776;52.012;4.736;2023-05-10T10:55:05;16.45;;;9.30;;
78489;SDS011;67776;52.012;4.736;2023-05-10T10:57:53;15.80;;;9.57;;
78489;SDS011;67776;52.012;4.736;2023-05-10T11:00:26;15.55;;;9.15;;
78489;SDS011;67776;52.012;4.736;2023-05-10T11:02:57;11.13;;;5.20;;
78489;SDS011;67776;52.012;4.736;2023-05-10T11:05:38;9.98;;;5.68;;
78489;SDS011;67776;52.012;4.736;2023-05-10T11:13:38;14.52;;;6.68;;
78489;SDS011;67776;52.012;4.736;2023-05-10T11:18:35;13.80;;;6.65;;
78489;SDS011;67776;52.012;4.736;2023-05-10T11:21:02;15.55;;;7.22;;
78489;SDS011;67776;52.012;4.736;2023-05-10T11:23:30;16.10;;;6.87;;
78489;SDS011;67776;52.012;4.736;2023-05-10T11:25:56;13.32;;;7.18;;
78489;SDS011;67776;52.012;4.736;2023-05-10T11:28:21;15.53;;;7.43;;
78489;SDS011;67776;52.012;4.736;2023-05-10T11:30:47;15.93;;;7.63;;
78489;SDS011;67776;52.012;4.736;2023-05-10T11:33:16;16.80;;;7.63;;
78489;SDS011;67776;52.012;4.736;2023-05-10T11:35:42;16.95;;;7.90;;
78489;SDS011;67776;52.012;4.736;2023-05-10T11:38:08;13.83;;;6.87;;
78489;SDS011;67776;52.012;4.736;2023-05-10T11:40:37;15.13;;;8.20;;
78489;SDS011;67776;52.012;4.736;2023-05-10T11:43:04;16.23;;;7.35;;
78489;SDS011;67776;52.012;4.736;2023-05-10T11:45:33;12.80;;;6.53;;
78489;SDS011;67776;52.012;4.736;2023-05-10T11:47:59;12.50;;;6.07;;
78489;SDS011;67776;52.012;4.736;2023-05-10T11:50:25;14.50;;;6.50;;
78489;SDS011;67776;52.012;4.736;2023-05-10T11:52:54;12.88;;;6.18;;
78489;SDS011;67776;52.012;4.736;2023-05-10T11:55:20;13.57;;;6.72;;
78489;SDS011;67776;52.012;4.736;2023-05-10T11:57:46;12.27;;;6.70;;
78489;SDS011;67776;52.012;4.736;2023-05-10T12:00:12;14.83;;;7.30;;
78489;SDS011;67776;52.012;4.736;2023-05-10T12:02:38;12.88;;;7.15;;
78489;SDS011;67776;52.012;4.736;2023-05-10T12:05:04;17.45;;;7.78;;
78489;SDS011;67776;52.012;4.736;2023-05-10T12:07:30;13.87;;;7.00;;
78489;SDS011;67776;52.012;4.736;2023-05-10T12:10:02;16.75;;;8.02;;
78489;SDS011;67776;52.012;4.736;2023-05-10T12:12:34;14.82;;;7.72;;
78489;SDS011;67776;52.012;4.736;2023-05-10T12:15:12;14.93;;;7.55;;
78489;SDS011;67776;52.012;4.736;2023-05-10T12:17:44;16.30;;;7.87;;
78489;SDS011;67776;52.012;4.736;2023-05-10T12:20:17;16.70;;;7.95;;
78489;SDS011;67776;52.012;4.736;2023-05-10T12:22:44;15.52;;;7.10;;
78489;SDS011;67776;52.012;4.736;2023-05-10T12:25:11;11.43;;;5.60;;
78489;SDS011;67776;52.012;4.736;2023-05-10T12:27:36;12.13;;;6.10;;
78489;SDS011;67776;52.012;4.736;2023-05-10T12:30:02;13.60;;;6.23;;
78489;SDS011;67776;52.012;4.736;2023-05-10T12:33:01;13.82;;;6.40;;
78489;SDS011;67776;52.012;4.736;2023-05-10T12:35:23;10.57;;;5.70;;
78489;SDS011;67776;52.012;4.736;2023-05-10T12:37:50;10.55;;;5.85;;
78489;SDS011;67776;52.012;4.736;2023-05-10T12:40:16;12.15;;;6.25;;
78489;SDS011;67776;52.012;4.736;2023-05-10T12:42:41;11.03;;;5.97;;
78489;SDS011;67776;52.012;4.736;2023-05-10T12:45:08;10.88;;;5.90;;
78489;SDS011;67776;52.012;4.736;2023-05-10T12:47:34;11.53;;;5.87;;
78489;SDS011;67776;52.012;4.736;2023-05-10T12:50:00;10.63;;;5.82;;
78489;SDS011;67776;52.012;4.736;2023-05-10T12:52:26;12.13;;;5.67;;
78489;SDS011;67776;52.012;4.736;2023-05-10T12:54:52;14.80;;;6.35;;
78489;SDS011;67776;52.012;4.736;2023-05-10T12:57:20;11.85;;;5.90;;
78489;SDS011;67776;52.012;4.736;2023-05-10T12:59:45;11.07;;;5.45;;
78489;SDS011;67776;52.012;4.736;2023-05-10T13:02:11;10.93;;;6.10;;
78489;SDS011;67776;52.012;4.736;2023-05-10T13:04:36;11.00;;;4.40;;
78489;SDS011;67776;52.012;4.736;2023-05-10T13:07:05;9.40;;;4.38;;
78489;SDS011;67776;52.012;4.736;2023-05-10T13:09:31;8.80;;;4.47;;
78489;SDS011;67776;52.012;4.736;2023-05-10T13:11:56;9.90;;;4.67;;
78489;SDS011;67776;52.012;4.736;2023-05-10T13:14:22;11.50;;;5.30;;
78489;SDS011;67776;52.012;4.736;2023-05-10T13:16:47;9.40;;;4.93;;
78489;SDS011;67776;52.012;4.736;2023-05-10T13:19:13;10.67;;;5.07;;
78489;SDS011;67776;52.012;4.736;2023-05-10T13:21:39;10.50;;;4.78;;
78489;SDS011;67776;52.012;4.736;2023-05-10T13:24:06;12.57;;;4.80;;
78489;SDS011;67776;52.012;4.736;2023-05-10T13:26:32;12.20;;;5.28;;
78489;SDS011;67776;52.012;4.736;2023-05-10T13:28:57;12.10;;;5.13;;
78489;SDS011;67776;52.012;4.736;2023-05-10T13:31:22;10.97;;;5.30;;
78489;SDS011;67776;52.012;4.736;2023-05-10T13:33:48;13.07;;;6.00;;
78489;SDS011;67776;52.012;4.736;2023-05-10T13:36:13;12.30;;;6.40;;
78489;SDS011;67776;52.012;4.736;2023-05-10T13:38:38;12.52;;;6.50;;
78489;SDS011;67776;52.012;4.736;2023-05-10T13:41:04;12.53;;;5.80;;
78489;SDS011;67776;52.012;4.736;2023-05-10T13:43:29;13.83;;;6.40;;
78489;SDS011;67776;52.012;4.736;2023-05-10T13:45:54;11.90;;;6.27;;
78489;SDS011;67776;52.012;4.736;2023-05-10T13:48:20;12.50;;;5.87;;
78489;SDS011;67776;52.012;4.736;2023-05-10T13:50:46;15.48;;;5.53;;
78489;SDS011;67776;52.012;4.736;2023-05-10T13:53:11;11.20;;;5.63;;
78489;SDS011;67776;52.012;4.736;2023-05-10T13:55:37;12.30;;;5.70;;
78489;SDS011;67776;52.012;4.736;2023-05-10T13:58:03;13.77;;;5.77;;
78489;SDS011;67776;52.012;4.736;2023-05-10T14:00:28;13.70;;;5.97;;
78489;SDS011;67776;52.012;4.736;2023-05-10T14:02:53;11.07;;;4.97;;
78489;SDS011;67776;52.012;4.736;2023-05-10T14:05:19;10.73;;;5.05;;
78489;SDS011;67776;52.012;4.736;2023-05-10T14:07:44;11.83;;;5.30;;
78489;SDS011;67776;52.012;4.736;2023-05-10T14:10:09;12.47;;;5.30;;
78489;SDS011;67776;52.012;4.736;2023-05-10T14:12:35;11.83;;;4.90;;
78489;SDS011;67776;52.012;4.736;2023-05-10T14:15:01;10.88;;;4.78;;
78489;SDS011;67776;52.012;4.736;2023-05-10T14:17:27;13.15;;;4.30;;
78489;SDS011;67776;52.012;4.736;2023-05-10T14:19:52;10.03;;;4.60;;
78489;SDS011;67776;52.012;4.736;2023-05-10T14:22:18;9.90;;;4.83;;
78489;SDS011;67776;52.012;4.736;2023-05-10T14:24:43;10.97;;;5.17;;
78489;SDS011;67776;52.012;4.736;2023-05-10T14:27:11;10.68;;;4.90;;
78489;SDS011;67776;52.012;4.736;2023-05-10T14:29:37;12.60;;;5.43;;
78489;SDS011;67776;52.012;4.736;2023-05-10T14:32:02;11.97;;;4.60;;
78489;SDS011;67776;52.012;4.736;2023-05-10T14:34:28;12.10;;;4.73;;
78489;SDS011;67776;52.012;4.736;2023-05-10T14:36:53;8.67;;;4.10;;
78489;SDS011;67776;52.012;4.736;2023-05-10T14:39:19;8.65;;;4.45;;
78489;SDS011;67776;52.012;4.736;2023-05-10T14:41:44;8.70;;;4.20;;
78489;SDS011;67776;52.012;4.736;2023-05-10T14:44:10;8.25;;;4.43;;
78489;SDS011;67776;52.012;4.736;2023-05-10T14:46:36;8.40;;;4.20;;
78489;SDS011;67776;52.012;4.736;2023-05-10T14:49:03;7.82;;;4.00;;
78489;SDS011;67776;52.012;4.736;2023-05-10T14:51:31;8.10;;;4.07;;
78489;SDS011;67776;52.012;4.736;2023-05-10T14:53:56;8.15;;;4.10;;
78489;SDS011;67776;52.012;4.736;2023-05-10T14:56:22;9.70;;;4.07;;
78489;SDS011;67776;52.012;4.736;2023-05-10T14:58:47;8.07;;;4.23;;